Time;durP1;ratioP1;P1;durP2;ratioP2;P2;SDS_P1;SDS_P2;PMS_P1;PMS_P2;Temp;Humidity;BMP_temperature;BMP_pressure;BME280_temperature;BME280_humidity;BME280_pressure;Samples;Min_cycle;Max_cycle;Signal;HPM_P1;HPM_P2
2024/03/20 00:00:43;;;;;;;9.82;4.43;;;;;;;13.28;64.69;98791.63;5077212;28;20095;-47
2024/03/20 00:03:10;;;;;;;8.32;4.45;;;;;;;13.21;65.24;98801.41;5095371;28;20570;-47
2024/03/20 00:05:35;;;;;;;8.70;4.30;;;;;;;13.11;65.24;98798.44;5095219;28;20028;-48
2024/03/20 00:08:01;;;;;;;5.80;3.90;;;;;;;13.21;66.26;98803.25;5095329;28;20102;-47
2024/03/20 00:10:27;;;;;;;7.32;4.90;;;;;;;13.44;65.55;98798.22;5095154;28;20028;-47
2024/03/20 00:12:53;;;;;;;7.88;5.00;;;;;;;13.59;64.93;98803.97;5093893;28;20039;-47
2024/03/20 00:15:19;;;;;;;7.03;5.47;;;;;;;13.53;64.33;98814.56;5095015;28;20455;-47
2024/03/20 00:17:49;;;;;;;9.20;5.18;;;;;;;13.14;63.99;98813.84;5095062;28;20084;-48
2024/03/20 00:20:15;;;;;;;9.18;5.53;;;;;;;12.57;65.75;98817.19;5094994;28;20047;-47
2024/03/20 00:22:41;;;;;;;10.13;4.72;;;;;;;12.22;66.99;98814.09;5094932;28;20036;-47
2024/03/20 00:25:09;;;;;;;9.27;5.20;;;;;;;11.93;67.86;98810.94;5093724;28;20074;-50
2024/03/20 00:27:35;;;;;;;7.90;4.78;;;;;;;11.59;69.38;98809.34;5094775;28;20024;-49
2024/03/20 00:30:01;;;;;;;10.88;5.00;;;;;;;11.39;69.84;98812.78;5093540;28;20028;-49
2024/03/20 00:32:26;;;;;;;9.52;5.22;;;;;;;11.13;71.49;98805.72;5093467;28;20401;-49
2024/03/20 00:34:52;;;;;;;7.85;5.30;;;;;;;11.10;72.75;98813.97;5094638;28;20028;-49
2024/03/20 00:37:21;;;;;;;6.43;4.70;;;;;;;11.23;73.29;98807.09;5094735;28;20020;-49
2024/03/20 00:39:46;;;;;;;7.85;4.65;;;;;;;11.36;72.76;98809.75;5094656;28;20498;-49
2024/03/20 00:42:12;;;;;;;10.80;5.78;;;;;;;11.44;72.64;98804.28;5093585;28;20054;-49
2024/03/20 00:44:38;;;;;;;11.57;5.60;;;;;;;11.52;72.42;98808.53;5094620;28;20511;-49
2024/03/20 00:47:04;;;;;;;11.20;6.15;;;;;;;11.47;72.44;98809.16;5094448;28;20032;-49
2024/03/20 00:49:30;;;;;;;8.95;5.70;;;;;;;11.26;72.13;98809.34;5093152;28;20024;-49
2024/03/20 00:51:56;;;;;;;9.13;6.38;;;;;;;11.17;73.48;98811.38;5093909;28;20444;-50
2024/03/20 00:54:22;;;;;;;9.93;5.43;;;;;;;11.26;73.88;98817.22;5094341;28;20023;-49
2024/03/20 00:56:47;;;;;;;8.05;5.55;;;;;;;11.25;72.93;98820.84;5094267;28;20020;-49
2024/03/20 00:59:15;;;;;;;8.05;4.63;;;;;;;11.15;73.18;98818.66;5093015;28;20070;-49
2024/03/20 01:01:41;;;;;;;6.18;4.90;;;;;;;11.15;73.58;98816.03;5094238;28;20024;-49
2024/03/20 01:04:07;;;;;;;8.55;4.93;;;;;;;11.14;73.80;98817.81;5094150;28;20016;-49
2024/03/20 01:06:32;;;;;;;7.55;5.13;;;;;;;11.16;73.65;98820.25;5093056;28;20020;-48
2024/03/20 01:08:58;;;;;;;9.98;5.32;;;;;;;11.21;73.99;98817.84;5094108;28;20107;-49
2024/03/20 01:11:24;;;;;;;11.32;7.07;;;;;;;11.26;73.63;98810.16;5094036;28;20015;-49
2024/03/20 01:13:49;;;;;;;11.63;8.30;;;;;;;11.18;73.04;98820.84;5094325;28;20047;-49
2024/03/20 01:16:15;;;;;;;14.57;6.72;;;;;;;11.13;73.71;98820.66;5094394;28;20024;-49
2024/03/20 01:18:41;;;;;;;11.98;5.80;;;;;;;11.10;73.95;98813.97;5092644;28;20108;-49
2024/03/20 01:21:07;;;;;;;7.63;4.80;;;;;;;11.15;74.04;98819.44;5093883;28;20517;-49
2024/03/20 01:23:32;;;;;;;9.30;5.55;;;;;;;11.11;72.99;98826.09;5092539;28;20405;-49
2024/03/20 01:25:58;;;;;;;5.70;4.45;;;;;;;10.88;73.55;98823.03;5093495;28;20048;-49
2024/03/20 01:28:27;;;;;;;7.97;4.00;;;;;;;10.74;74.26;98817.75;5093797;28;20043;-49
2024/03/20 01:30:54;;;;;;;6.32;4.60;;;;;;;10.74;74.87;98815.13;5093617;28;20034;-49
2024/03/20 01:33:20;;;;;;;10.07;5.30;;;;;;;10.76;74.79;98810.47;5092305;28;20031;-49
2024/03/20 01:35:45;;;;;;;10.05;6.35;;;;;;;10.71;74.78;98812.09;5093534;28;20024;-49
2024/03/20 01:38:11;;;;;;;14.27;7.05;;;;;;;10.75;75.49;98813.31;5093600;28;20542;-49
2024/03/20 01:40:37;;;;;;;8.77;5.40;;;;;;;10.84;75.45;98812.09;5093483;28;20078;-49
2024/03/20 01:43:02;;;;;;;6.45;5.15;;;;;;;11.01;74.93;98809.94;5092478;28;20030;-49
2024/03/20 01:45:28;;;;;;;12.30;5.00;;;;;;;11.13;74.52;98810.16;5093260;28;20028;-49
2024/03/20 01:47:54;;;;;;;9.02;5.47;;;;;;;11.18;73.92;98798.00;5092332;28;20020;-49
2024/03/20 01:50:20;;;;;;;7.82;4.68;;;;;;;11.20;73.62;98810.97;5093271;28;20478;-49
2024/03/20 01:52:54;;;;;;;7.13;4.43;;;;;;;11.18;73.12;98805.09;5091940;28;20123;-49
2024/03/20 01:55:24;;;;;;;7.85;5.05;;;;;;;11.11;73.45;98805.09;5091855;28;20020;-50
2024/03/20 01:57:51;;;;;;;7.85;5.22;;;;;;;10.95;73.36;98808.13;5091860;28;20055;-49
2024/03/20 02:00:21;;;;;;;9.07;5.30;;;;;;;10.70;73.94;98802.59;5091797;28;20084;-49
2024/03/20 02:02:50;;;;;;;7.00;4.78;;;;;;;10.47;74.59;98802.94;5092156;28;20107;-48
2024/03/20 02:05:16;;;;;;;6.20;4.43;;;;;;;10.22;75.40;98799.97;5092910;28;20028;-49
2024/03/20 02:07:43;;;;;;;10.07;4.60;;;;;;;10.17;76.26;98805.81;5092982;28;20024;-49
2024/03/20 02:10:09;;;;;;;7.80;4.75;;;;;;;10.23;77.18;98799.78;5092843;28;20549;-49
2024/03/20 02:12:34;;;;;;;7.30;5.03;;;;;;;10.29;77.30;98796.38;5092891;28;20035;-49
2024/03/20 02:15:12;;;;;;;7.72;5.30;;;;;;;10.30;77.10;98799.81;5091531;28;20032;-49
2024/03/20 02:17:41;;;;;;;6.13;4.18;;;;;;;10.46;77.07;98791.59;5092829;28;20027;-49
2024/03/20 02:20:08;;;;;;;6.22;4.25;;;;;;;10.54;76.45;98798.50;5091417;28;20402;-49
2024/03/20 02:22:44;;;;;;;6.90;4.13;;;;;;;10.63;76.35;98794.72;5091380;28;20100;-49
2024/03/20 02:25:10;;;;;;;10.30;4.72;;;;;;;10.74;75.90;98790.69;5092441;28;20039;-50
2024/03/20 02:27:36;;;;;;;7.78;5.25;;;;;;;10.79;75.36;98798.78;5091284;28;20024;-49
2024/03/20 02:30:10;;;;;;;7.20;5.00;;;;;;;10.76;75.50;98799.16;5092809;28;20028;-49
2024/03/20 02:32:40;;;;;;;9.50;5.47;;;;;;;10.93;75.38;98789.13;5091208;28;20585;-49
2024/03/20 02:35:06;;;;;;;12.50;5.55;;;;;;;11.13;75.60;98789.94;5092433;28;20448;-49
2024/03/20 02:37:32;;;;;;;6.60;5.03;;;;;;;11.30;73.26;98789.53;5091128;28;20103;-50
2024/03/20 02:39:58;;;;;;;8.38;4.68;;;;;;;11.28;73.87;98786.31;5091070;28;20484;-49
2024/03/20 02:42:24;;;;;;;8.82;5.75;;;;;;;11.27;73.02;98790.75;5090967;28;20034;-49
2024/03/20 02:44:50;;;;;;;7.15;4.28;;;;;;;11.12;72.37;98790.13;5092597;28;20020;-49
2024/03/20 02:47:17;;;;;;;7.80;4.40;;;;;;;10.75;72.44;98792.31;5092148;28;20421;-49
2024/03/20 02:49:43;;;;;;;8.75;4.75;;;;;;;10.56;74.50;98788.63;5090935;28;20490;-49
2024/03/20 02:52:09;;;;;;;10.20;4.85;;;;;;;10.47;75.04;98789.81;5092131;28;20024;-48
2024/03/20 02:54:35;;;;;;;6.55;5.00;;;;;;;10.46;75.35;98788.97;5090811;28;20031;-49
2024/03/20 02:57:01;;;;;;;7.53;4.53;;;;;;;10.53;75.42;98789.03;5090949;28;20065;-49
2024/03/20 02:59:27;;;;;;;6.82;4.00;;;;;;;10.59;75.36;98788.25;5092101;28;20103;-49
2024/03/20 03:01:53;;;;;;;7.53;4.10;;;;;;;10.70;74.93;98790.25;5092307;28;20088;-49
2024/03/20 03:04:18;;;;;;;10.38;4.22;;;;;;;10.73;74.73;98787.25;5090745;28;20497;-49
2024/03/20 03:06:44;;;;;;;7.50;4.20;;;;;;;10.87;74.49;98782.84;5091900;28;20506;-49
2024/03/20 03:09:16;;;;;;;5.50;3.90;;;;;;;10.85;74.25;98782.25;5090727;28;20031;-49
2024/03/20 03:11:45;;;;;;;5.78;4.18;;;;;;;10.82;74.06;98785.25;5092251;28;20024;-49
2024/03/20 03:14:12;;;;;;;7.85;3.95;;;;;;;10.77;73.95;98785.84;5090384;28;20093;-49
2024/03/20 03:16:38;;;;;;;7.47;4.40;;;;;;;10.61;74.19;98782.81;5091825;28;20020;-49
2024/03/20 03:19:05;;;;;;;7.05;4.35;;;;;;;10.49;74.59;98793.06;5090621;28;20024;-48
2024/03/20 03:21:31;;;;;;;8.52;4.43;;;;;;;10.45;75.18;98787.38;5090565;28;20023;-48
2024/03/20 03:23:57;;;;;;;17.15;4.32;;;;;;;10.45;75.37;98789.22;5090553;28;20031;-48
2024/03/20 03:26:22;;;;;;;9.32;4.55;;;;;;;10.34;75.19;98793.19;5090193;28;20044;-48
2024/03/20 03:28:48;;;;;;;7.97;4.20;;;;;;;10.27;75.67;98787.09;5091839;28;20398;-48
2024/03/20 03:31:14;;;;;;;8.90;4.55;;;;;;;10.34;76.25;98787.94;5090433;28;20475;-48
2024/03/20 03:33:39;;;;;;;7.68;5.00;;;;;;;10.37;75.62;98783.13;5090400;28;20038;-48
2024/03/20 03:36:09;;;;;;;6.90;4.65;;;;;;;10.44;75.91;98784.94;5091894;28;20020;-48
2024/03/20 03:38:35;;;;;;;7.07;4.43;;;;;;;10.52;75.94;98792.66;5091748;28;20024;-48
2024/03/20 03:41:03;;;;;;;7.78;4.30;;;;;;;10.55;75.81;98785.19;5090349;28;20114;-48
2024/03/20 03:43:29;;;;;;;5.65;3.75;;;;;;;10.70;75.26;98790.25;5091676;28;20020;-48
2024/03/20 03:45:55;;;;;;;9.40;4.63;;;;;;;10.72;74.55;98792.69;5091579;28;20100;-48
2024/03/20 03:48:21;;;;;;;9.48;5.03;;;;;;;10.67;74.15;98784.63;5090247;28;20020;-48
2024/03/20 03:50:50;;;;;;;7.93;4.50;;;;;;;10.59;74.49;98789.03;5091559;28;20024;-48
2024/03/20 03:53:17;;;;;;;7.43;4.63;;;;;;;10.47;74.51;98793.25;5090202;28;20080;-48
2024/03/20 03:55:44;;;;;;;8.02;4.50;;;;;;;10.29;74.77;98798.19;5091499;28;20095;-48
2024/03/20 03:58:09;;;;;;;202.45;181.95;;;;;;;10.16;75.54;98798.91;5090182;28;20028;-48
2024/03/20 04:00:35;;;;;;;262.95;236.43;;;;;;;10.19;76.76;98794.09;5091435;28;20027;-48
2024/03/20 04:03:02;;;;;;;742.47;577.05;;;;;;;10.31;76.34;98796.22;5090169;28;20020;-48
2024/03/20 04:05:30;;;;;;;280.50;249.48;;;;;;;10.32;75.99;98798.66;5107312;28;20053;-48
2024/03/20 04:07:55;;;;;;;86.05;71.47;;;;;;;10.34;76.28;98796.63;5091421;28;20020;-48
2024/03/20 04:10:21;;;;;;;177.48;158.38;;;;;;;10.35;76.13;98807.94;5091329;28;20031;-48
2024/03/20 04:12:47;;;;;;;79.45;70.82;;;;;;;10.37;76.00;98796.22;5090116;28;20112;-48
2024/03/20 04:15:13;;;;;;;85.97;71.80;;;;;;;10.21;75.48;98796.53;5090039;28;20059;-48
2024/03/20 04:17:40;;;;;;;26.10;18.42;;;;;;;10.08;76.44;98801.72;5091325;28;20028;-48
2024/03/20 04:20:07;;;;;;;24.33;17.73;;;;;;;9.95;76.65;98803.25;5089983;28;20032;-48
2024/03/20 04:22:33;;;;;;;22.15;14.25;;;;;;;9.97;76.85;98800.44;5089930;28;20486;-48
2024/03/20 04:24:59;;;;;;;13.00;10.52;;;;;;;9.89;77.21;98805.84;5091241;28;20115;-48
2024/03/20 04:27:25;;;;;;;13.25;9.48;;;;;;;9.83;77.29;98804.00;5093003;28;20449;-48
2024/03/20 04:29:51;;;;;;;13.43;8.07;;;;;;;9.82;78.08;98811.06;5093831;28;20032;-47
2024/03/20 04:32:19;;;;;;;11.07;8.18;;;;;;;9.79;77.67;98814.84;5093506;28;20032;-48
2024/03/20 04:34:44;;;;;;;8.10;6.32;;;;;;;9.79;78.77;98819.28;5094711;28;20031;-48
2024/03/20 04:37:10;;;;;;;11.18;5.93;;;;;;;9.93;78.58;98822.81;5093423;28;20039;-48
2024/03/20 04:39:36;;;;;;;10.13;7.18;;;;;;;10.06;78.38;98814.22;5094666;28;20024;-48
2024/03/20 04:42:02;;;;;;;8.80;6.18;;;;;;;10.14;77.55;98812.25;5093312;28;20036;-48
2024/03/20 04:44:29;;;;;;;10.35;6.00;;;;;;;10.25;77.40;98815.31;5093572;28;20178;-48
2024/03/20 04:46:54;;;;;;;11.23;6.05;;;;;;;10.34;77.53;98807.13;5094458;28;20077;-48
2024/03/20 04:49:20;;;;;;;10.38;5.18;;;;;;;10.33;76.87;98813.38;5094507;28;20031;-48
2024/03/20 04:51:46;;;;;;;10.80;6.47;;;;;;;10.28;77.08;98812.28;5094477;28;20382;-48
2024/03/20 04:54:14;;;;;;;6.72;4.20;;;;;;;10.26;76.98;98814.31;5093084;28;20390;-48
2024/03/20 04:56:40;;;;;;;6.20;3.90;;;;;;;10.18;76.98;98807.41;5094350;28;20025;-48
2024/03/20 04:59:09;;;;;;;5.45;3.90;;;;;;;10.00;77.04;98821.84;5093020;28;20032;-48
2024/03/20 05:01:35;;;;;;;5.18;3.85;;;;;;;9.83;77.68;98819.72;5094252;28;20028;-48
2024/03/20 05:04:01;;;;;;;17.60;12.32;;;;;;;9.73;78.46;98817.44;5094500;28;20103;-48
2024/03/20 05:06:27;;;;;;;10.40;5.80;;;;;;;9.66;78.61;98814.78;5094064;28;20103;-48
2024/03/20 05:08:53;;;;;;;7.45;4.28;;;;;;;9.65;78.79;98818.41;5094148;28;20024;-48
2024/03/20 05:11:20;;;;;;;5.45;3.92;;;;;;;9.64;78.90;98821.19;5092723;28;20081;-48
2024/03/20 05:13:45;;;;;;;7.68;4.05;;;;;;;9.56;79.10;98822.97;5093037;28;20032;-48
2024/03/20 05:16:11;;;;;;;11.05;5.63;;;;;;;9.61;79.53;98817.16;5092691;28;20542;-48
2024/03/20 05:18:37;;;;;;;7.55;3.50;;;;;;;9.76;79.41;98824.94;5092634;28;20032;-48
2024/03/20 05:21:03;;;;;;;7.15;3.60;;;;;;;9.88;79.19;98820.78;5092549;28;20028;-48
2024/03/20 05:23:29;;;;;;;9.68;3.65;;;;;;;9.94;78.93;98834.91;5092666;28;20405;-48
2024/03/20 05:26:00;;;;;;;8.35;4.40;;;;;;;10.01;79.00;98833.16;5091750;28;20055;-48
2024/03/20 05:28:27;;;;;;;7.90;4.00;;;;;;;10.00;78.51;98831.53;5092754;28;20391;-48
2024/03/20 05:30:52;;;;;;;6.32;3.47;;;;;;;9.96;78.37;98835.53;5092691;28;20371;-48
2024/03/20 05:33:19;;;;;;;7.80;3.25;;;;;;;9.99;78.52;98830.72;5092370;28;20031;-48
2024/03/20 05:35:45;;;;;;;6.38;3.17;;;;;;;10.02;78.80;98829.53;5093614;28;20020;-48
2024/03/20 05:38:11;;;;;;;6.18;3.22;;;;;;;10.09;78.28;98830.38;5092486;28;20016;-48
2024/03/20 05:40:37;;;;;;;7.13;3.10;;;;;;;10.04;78.00;98840.63;5093459;28;20020;-48
2024/03/20 05:43:04;;;;;;;6.78;3.33;;;;;;;10.08;78.10;98838.41;5093797;28;20028;-48
2024/03/20 05:45:30;;;;;;;9.80;3.72;;;;;;;10.09;78.08;98842.69;5093226;28;20020;-48
2024/03/20 05:47:56;;;;;;;8.93;3.70;;;;;;;10.08;78.36;98843.66;5092183;28;20039;-48
2024/03/20 05:50:22;;;;;;;8.15;4.13;;;;;;;10.20;78.29;98834.25;5093337;28;20398;-48
2024/03/20 05:52:47;;;;;;;8.00;5.03;;;;;;;10.28;77.66;98833.28;5092269;28;20028;-48
2024/03/20 05:55:15;;;;;;;8.55;4.20;;;;;;;10.53;77.34;98833.63;5092138;28;20035;-48
2024/03/20 05:57:41;;;;;;;7.30;4.13;;;;;;;10.99;75.23;98838.22;5093149;28;20020;-48
2024/03/20 06:00:14;;;;;;;7.15;3.65;;;;;;;11.30;73.48;98836.84;5093094;28;20028;-48
2024/03/20 06:02:44;;;;;;;13.05;4.45;;;;;;;11.44;72.34;98835.81;5093056;28;20091;-48
2024/03/20 06:05:10;;;;;;;17.85;5.70;;;;;;;11.47;72.14;98845.94;5091985;28;20035;-48
2024/03/20 06:07:36;;;;;;;14.25;6.07;;;;;;;11.32;72.27;98846.13;5093441;28;20020;-48
2024/03/20 06:10:03;;;;;;;11.27;4.70;;;;;;;11.28;73.04;98850.16;5092928;28;20032;-48
2024/03/20 06:12:29;;;;;;;6.50;4.07;;;;;;;11.38;73.02;98845.31;5092885;28;20055;-48
2024/03/20 06:14:55;;;;;;;7.90;3.97;;;;;;;11.64;72.36;98846.34;5092841;28;20047;-48
2024/03/20 06:17:21;;;;;;;9.13;3.22;;;;;;;11.74;71.43;98854.63;5093100;28;20020;-48
2024/03/20 06:19:46;;;;;;;5.25;3.40;;;;;;;11.78;70.73;98850.56;5092775;28;20024;-48
2024/03/20 06:22:13;;;;;;;13.77;4.05;;;;;;;11.73;70.40;98860.06;5091689;28;20031;-48
2024/03/20 06:24:38;;;;;;;7.05;3.65;;;;;;;11.64;71.23;98850.78;5092678;28;20016;-48
2024/03/20 06:27:04;;;;;;;10.10;3.47;;;;;;;11.80;70.91;98853.00;5092274;28;20071;-48
2024/03/20 06:29:30;;;;;;;9.85;3.67;;;;;;;12.09;70.67;98853.59;5091266;28;20047;-48
2024/03/20 06:31:57;;;;;;;14.18;3.60;;;;;;;12.57;69.60;98854.03;5092547;28;20371;-48
2024/03/20 06:34:22;;;;;;;7.38;3.67;;;;;;;12.84;68.25;98856.56;5091205;28;20020;-48
2024/03/20 06:36:48;;;;;;;6.25;3.15;;;;;;;12.92;66.76;98868.69;5092533;28;20397;-48
2024/03/20 06:39:14;;;;;;;4.35;3.00;;;;;;;13.10;67.09;98857.41;5092393;28;20389;-48
2024/03/20 06:41:43;;;;;;;7.70;3.47;;;;;;;13.36;65.94;98859.09;5092625;28;20485;-48
2024/03/20 06:44:09;;;;;;;9.07;3.20;;;;;;;13.46;65.49;98858.63;5092611;28;20028;-48
2024/03/20 06:46:36;;;;;;;7.80;3.08;;;;;;;13.61;64.69;98864.41;5092281;28;20035;-48
2024/03/20 06:49:09;;;;;;;13.18;3.38;;;;;;;13.76;63.99;98862.25;5091842;28;20016;-48
2024/03/20 06:51:36;;;;;;;6.50;3.03;;;;;;;13.84;63.78;98860.34;5092539;28;20024;-48
2024/03/20 06:54:16;;;;;;;6.70;3.65;;;;;;;13.87;63.50;98867.84;5090862;28;20020;-48
2024/03/20 06:56:48;;;;;;;9.10;3.38;;;;;;;14.07;62.86;98873.72;5092192;28;20020;-48
2024/03/20 06:59:16;;;;;;;12.93;3.72;;;;;;;14.45;63.62;98870.09;5092131;28;20020;-48
2024/03/20 07:01:42;;;;;;;5.55;2.92;;;;;;;15.12;62.08;98859.50;5092291;28;20042;-48
2024/03/20 07:04:08;;;;;;;14.25;3.50;;;;;;;15.54;59.74;98856.03;5090760;28;20497;-48
2024/03/20 07:06:34;;;;;;;8.02;3.25;;;;;;;15.89;58.31;98857.91;5091869;28;20024;-48
2024/03/20 07:09:00;;;;;;;9.75;2.78;;;;;;;16.30;56.68;98862.25;5074147;28;20056;-48
2024/03/20 07:11:25;;;;;;;6.35;2.75;;;;;;;16.85;55.35;98868.13;5091931;28;20067;-48
2024/03/20 07:13:54;;;;;;;18.60;3.55;;;;;;;17.09;54.39;98871.47;5091964;28;20504;-48
2024/03/20 07:16:20;;;;;;;6.13;3.10;;;;;;;17.12;53.49;98865.69;5092086;28;20100;-48
2024/03/20 07:18:46;;;;;;;8.82;3.17;;;;;;;16.94;53.23;98870.16;5090600;28;20047;-48
2024/03/20 07:21:12;;;;;;;8.88;3.70;;;;;;;16.92;53.69;98874.91;5091784;28;20023;-48
2024/03/20 07:23:37;;;;;;;10.73;3.80;;;;;;;17.16;53.59;98872.94;5074021;28;20044;-48
2024/03/20 07:26:03;;;;;;;12.68;7.07;;;;;;;17.36;52.96;98872.50;5090198;28;20027;-49
2024/03/20 07:28:29;;;;;;;7.47;5.28;;;;;;;17.68;51.93;98868.47;5090480;28;20031;-49
2024/03/20 07:30:55;;;;;;;6.93;3.58;;;;;;;18.14;51.98;98866.50;5091756;28;20454;-48
2024/03/20 07:33:20;;;;;;;18.35;4.25;;;;;;;18.80;50.25;98877.19;5091686;28;20023;-48
2024/03/20 07:35:47;;;;;;;12.52;4.13;;;;;;;19.23;49.87;98869.34;5091674;28;20379;-48
2024/03/20 07:38:13;;;;;;;9.70;3.40;;;;;;;19.92;48.46;98868.56;5091615;28;20444;-46
2024/03/20 07:40:43;;;;;;;7.88;2.85;;;;;;;20.62;45.93;98871.09;5091618;28;20028;-46
2024/03/20 07:43:09;;;;;;;19.15;3.72;;;;;;;21.27;44.96;98871.47;5090325;28;20046;-46
2024/03/20 07:45:36;;;;;;;12.40;5.28;;;;;;;21.64;43.24;98871.25;5090230;28;20112;-46
2024/03/20 07:48:02;;;;;;;11.27;3.38;;;;;;;21.26;42.88;98868.03;5091717;28;20028;-46
2024/03/20 07:50:28;;;;;;;9.07;3.38;;;;;;;21.00;43.01;98871.72;5091631;28;20049;-46
2024/03/20 07:52:55;;;;;;;7.22;3.20;;;;;;;21.37;43.50;98868.03;5091650;28;20030;-46
2024/03/20 07:55:21;;;;;;;8.57;3.10;;;;;;;22.13;42.47;98872.50;5091433;28;20024;-46
2024/03/20 07:57:48;;;;;;;10.35;3.60;;;;;;;22.87;39.51;98865.53;5091561;28;20501;-46
2024/03/20 08:00:17;;;;;;;7.13;2.95;;;;;;;23.03;38.66;98868.16;5091603;28;20055;-46
2024/03/20 08:02:43;;;;;;;6.93;3.10;;;;;;;22.98;39.44;98868.16;5095444;28;20020;-47
2024/03/20 08:05:12;;;;;;;7.55;2.88;;;;;;;23.36;38.19;98863.91;5094292;28;20035;-47
2024/03/20 08:07:39;;;;;;;13.75;3.03;;;;;;;23.33;37.97;98867.16;5095185;28;20111;-47
2024/03/20 08:10:08;;;;;;;9.70;2.70;;;;;;;23.64;38.02;98862.34;5093935;28;20111;-47
2024/03/20 08:12:33;;;;;;;13.25;4.28;;;;;;;24.13;36.90;98864.03;5093525;28;20031;-47
2024/03/20 08:15:00;;;;;;;6.22;4.10;;;;;;;24.58;36.95;98863.00;5077325;28;20405;-47
2024/03/20 08:17:25;;;;;;;12.73;3.78;;;;;;;25.04;35.93;98859.66;5093725;28;20052;-47
2024/03/20 08:19:51;;;;;;;13.65;3.70;;;;;;;25.12;34.82;98853.63;5076960;28;20136;-47
2024/03/20 08:22:18;;;;;;;15.00;2.97;;;;;;;25.23;34.31;98856.97;5093740;28;20024;-47
2024/03/20 08:24:44;;;;;;;10.95;3.45;;;;;;;25.28;35.06;98855.03;5095031;28;20095;-48
2024/03/20 08:27:10;;;;;;;14.43;4.00;;;;;;;25.68;34.56;98851.97;5093246;28;20044;-47
2024/03/20 08:29:38;;;;;;;8.18;3.50;;;;;;;25.90;34.66;98862.09;5094939;28;20028;-48
2024/03/20 08:32:09;;;;;;;19.08;6.15;;;;;;;26.68;33.33;98849.50;5094953;28;20035;-47
2024/03/20 08:34:35;;;;;;;18.40;7.60;;;;;;;27.36;31.71;98857.66;5094939;28;20023;-47
2024/03/20 08:37:02;;;;;;;21.27;9.90;;;;;;;27.65;31.99;98851.03;5095082;28;20016;-47
2024/03/20 08:39:28;;;;;;;26.02;6.32;;;;;;;28.37;30.76;98838.28;5095028;28;20425;-48
2024/03/20 08:41:54;;;;;;;13.30;4.68;;;;;;;28.90;30.06;98845.38;5094722;28;20027;-47
2024/03/20 08:44:20;;;;;;;12.10;3.70;;;;;;;29.36;29.67;98845.81;5094654;28;20024;-47
2024/03/20 08:46:47;;;;;;;23.23;5.82;;;;;;;29.55;28.89;98851.69;5094737;28;20024;-47
2024/03/20 08:49:13;;;;;;;15.85;4.90;;;;;;;30.03;29.02;98845.19;5093244;28;20497;-48
2024/03/20 08:51:40;;;;;;;13.50;3.78;;;;;;;30.77;27.48;98851.13;5076479;28;20421;-48
2024/03/20 08:54:07;;;;;;;9.55;3.25;;;;;;;30.12;27.29;98849.75;5094421;28;20024;-47
2024/03/20 08:56:32;;;;;;;17.75;3.33;;;;;;;28.81;28.36;98858.09;5094431;28;20016;-48
2024/03/20 08:58:58;;;;;;;5.40;2.88;;;;;;;27.89;30.54;98854.19;5076329;28;20060;-47
2024/03/20 09:01:24;;;;;;;9.05;2.47;;;;;;;28.01;29.84;98850.09;5094283;28;20027;-47
2024/03/20 09:03:50;;;;;;;8.45;2.55;;;;;;;28.45;29.40;98854.53;5094312;28;20366;-47
2024/03/20 09:06:17;;;;;;;10.25;3.15;;;;;;;29.08;29.25;98852.38;5094156;28;20116;-47
2024/03/20 09:08:42;;;;;;;15.15;3.03;;;;;;;29.72;28.53;98858.19;5094329;28;20108;-48
2024/03/20 09:11:08;;;;;;;12.52;3.42;;;;;;;30.27;27.80;98850.00;5092167;28;20024;-48
2024/03/20 09:13:34;;;;;;;7.53;2.83;;;;;;;30.38;27.33;98847.72;5092756;28;20066;-48
2024/03/20 09:15:59;;;;;;;7.43;2.70;;;;;;;30.66;27.12;98856.13;5092728;28;20035;-47
2024/03/20 09:18:26;;;;;;;11.25;2.00;;;;;;;30.78;26.09;98847.28;5092684;28;20458;-47
2024/03/20 09:20:52;;;;;;;5.50;2.15;;;;;;;30.74;26.72;98846.34;5093913;28;20065;-47
2024/03/20 09:23:21;;;;;;;8.05;2.03;;;;;;;30.85;26.07;98844.84;5092850;28;20030;-47
2024/03/20 09:25:47;;;;;;;7.30;2.50;;;;;;;30.67;26.39;98837.97;5093698;28;20024;-47
2024/03/20 09:28:13;;;;;;;6.88;2.05;;;;;;;30.68;26.29;98836.84;5093867;28;20044;-48
2024/03/20 09:30:38;;;;;;;4.93;1.80;;;;;;;30.79;26.48;98839.97;5093778;28;20393;-48
2024/03/20 09:33:05;;;;;;;14.35;2.85;;;;;;;30.90;26.43;98845.81;5093689;28;20020;-47
2024/03/20 09:35:31;;;;;;;7.13;2.13;;;;;;;30.85;26.32;98852.97;5093546;28;20063;-47
2024/03/20 09:37:57;;;;;;;11.77;3.10;;;;;;;30.11;27.35;98840.06;5093594;28;20050;-47
2024/03/20 09:40:25;;;;;;;5.70;2.28;;;;;;;29.71;27.24;98853.88;5093460;28;20077;-47
2024/03/20 09:42:53;;;;;;;4.80;2.08;;;;;;;29.39;27.45;98853.31;5093739;28;20024;-47
2024/03/20 09:45:20;;;;;;;3.58;2.15;;;;;;;29.24;28.07;98850.00;5093395;28;20054;-48
2024/03/20 09:47:51;;;;;;;4.55;2.28;;;;;;;29.63;27.86;98845.44;5093365;28;20032;-48
2024/03/20 09:50:18;;;;;;;5.13;2.03;;;;;;;29.69;27.31;98843.38;5093321;28;20035;-47
2024/03/20 09:52:44;;;;;;;4.50;2.42;;;;;;;29.53;27.30;98840.41;5092274;28;20031;-47
2024/03/20 09:55:17;;;;;;;3.42;1.83;;;;;;;29.52;27.51;98838.81;5092784;28;20028;-47
2024/03/20 09:57:45;;;;;;;6.07;1.95;;;;;;;29.83;27.22;98825.03;5091890;28;20113;-47
2024/03/20 10:00:16;;;;;;;6.70;2.05;;;;;;;30.24;26.84;98839.00;5093108;28;20098;-47
2024/03/20 10:02:49;;;;;;;5.00;2.05;;;;;;;30.64;26.38;98828.56;5091836;28;20027;-47
2024/03/20 10:05:15;;;;;;;7.32;2.60;;;;;;;31.05;25.58;98827.00;5092944;28;20497;-47
2024/03/20 10:07:42;;;;;;;7.28;2.97;;;;;;;31.62;28.21;98825.50;5092940;28;20107;-47
2024/03/20 10:10:15;;;;;;;5.88;2.03;;;;;;;32.21;24.79;98826.22;5092907;28;20053;-47
2024/03/20 10:12:42;;;;;;;10.75;2.33;;;;;;;32.66;24.64;98819.81;5091576;28;20405;-48
2024/03/20 10:15:09;;;;;;;2.05;1.50;;;;;;;32.62;24.16;98822.44;5092816;28;20027;-47
2024/03/20 10:17:36;;;;;;;8.13;5.72;;;;;;;32.73;24.43;98820.00;5091544;28;20397;-47
2024/03/20 10:20:19;;;;;;;7.15;2.85;;;;;;;32.32;24.99;98819.19;5092763;28;20019;-47
2024/03/20 10:22:46;;;;;;;19.93;5.17;;;;;;;31.71;24.77;98827.31;5092425;28;20084;-47
2024/03/20 10:25:16;;;;;;;6.45;2.50;;;;;;;31.79;24.61;98829.94;5092327;28;20035;-48
2024/03/20 10:27:44;;;;;;;7.90;2.42;;;;;;;31.69;24.90;98832.28;5092416;28;20040;-47
2024/03/20 10:30:18;;;;;;;12.55;3.10;;;;;;;31.76;24.42;98827.09;5092627;28;20052;-47
2024/03/20 10:32:52;;;;;;;5.38;3.15;;;;;;;31.14;25.41;98832.34;5092653;28;20027;-47
2024/03/20 10:35:23;;;;;;;8.02;2.30;;;;;;;31.14;25.38;98829.63;5091215;28;20024;-48
2024/03/20 10:37:49;;;;;;;3.17;1.83;;;;;;;31.40;25.75;98831.31;5092469;28;20064;-48
2024/03/20 10:40:20;;;;;;;7.53;2.50;;;;;;;31.52;25.79;98828.63;5092452;28;20035;-48
2024/03/20 10:42:51;;;;;;;7.40;4.00;;;;;;;32.10;26.17;98816.97;5092404;28;20028;-48
2024/03/20 10:45:20;;;;;;;5.32;2.40;;;;;;;32.33;25.35;98817.25;5092407;28;20024;-47
2024/03/20 10:47:46;;;;;;;3.20;2.00;;;;;;;32.15;24.51;98814.00;5092232;28;20126;-47
2024/03/20 10:50:14;;;;;;;27.08;3.85;;;;;;;31.25;25.61;98822.69;5092233;28;20056;-47
2024/03/20 10:52:45;;;;;;;4.10;2.05;;;;;;;31.30;25.73;98816.25;5092238;28;20028;-47
2024/03/20 10:55:13;;;;;;;3.85;2.33;;;;;;;31.23;26.17;98813.28;5090826;28;20020;-47
2024/03/20 10:57:39;;;;;;;7.47;2.60;;;;;;;31.29;25.80;98822.81;5092146;28;20421;-47
2024/03/20 11:00:14;;;;;;;4.95;2.65;;;;;;;31.61;25.29;98815.78;5091861;28;20054;-47
2024/03/20 11:02:39;;;;;;;5.93;2.17;;;;;;;31.93;25.15;98818.72;5092429;28;20027;-47
2024/03/20 11:05:40;;;;;;;8.25;2.40;;;;;;;31.38;25.10;98806.44;5092038;28;20039;-47
2024/03/20 11:08:10;;;;;;;8.48;2.83;;;;;;;30.77;26.10;98807.78;5091901;28;20032;-47
2024/03/20 11:10:46;;;;;;;6.93;2.58;;;;;;;30.58;26.52;98812.88;5090626;28;20035;-47
2024/03/20 11:13:20;;;;;;;4.00;2.42;;;;;;;30.39;26.93;98811.41;5092001;28;20028;-47
2024/03/20 11:15:50;;;;;;;6.40;3.00;;;;;;;30.24;28.16;98809.22;5090689;28;20398;-47
2024/03/20 11:18:25;;;;;;;7.32;2.60;;;;;;;29.90;28.09;98813.72;5091857;28;20038;-47
2024/03/20 11:20:51;;;;;;;3.45;2.00;;;;;;;30.31;27.28;98812.25;5091832;28;20032;-47
2024/03/20 11:23:26;;;;;;;4.15;2.40;;;;;;;30.60;27.29;98805.19;5073738;28;20028;-47
2024/03/20 11:25:52;;;;;;;7.45;2.15;;;;;;;31.13;26.93;98800.94;5090729;28;20039;-47
2024/03/20 11:28:20;;;;;;;5.28;2.20;;;;;;;31.46;25.90;98802.84;5090761;28;20044;-48
2024/03/20 11:30:47;;;;;;;6.03;2.03;;;;;;;31.70;25.97;98804.03;5091758;28;20024;-47